createdAt,value
2023-03-04T00:01:02.761Z,84.16
2023-03-04T00:03:04.242Z,83.52
2023-03-04T00:05:06.280Z,84.21
2023-03-04T00:07:07.870Z,84.26
2023-03-04T00:09:09.528Z,84.26
2023-03-04T00:11:11.256Z,84.08
2023-03-04T00:13:12.918Z,83.85
2023-03-04T00:15:14.408Z,84.52
2023-03-04T00:17:15.872Z,84.59
2023-03-04T00:19:17.332Z,84.33
2023-03-04T00:21:18.777Z,84.04
2023-03-04T00:23:20.226Z,84.77
2023-03-04T00:25:21.704Z,84.64
2023-03-04T00:27:23.147Z,84.19
2023-03-04T00:29:24.706Z,84.06
2023-03-04T00:31:26.216Z,83.61
2023-03-04T00:33:27.759Z,84.14
2023-03-04T00:35:29.263Z,84.65
2023-03-04T00:37:30.727Z,84.20
2023-03-04T00:39:32.184Z,84.67
2023-03-04T00:41:33.720Z,84.12
2023-03-04T00:43:35.241Z,84.38
2023-03-04T00:45:36.830Z,84.04
2023-03-04T00:47:38.300Z,84.32
2023-03-04T00:49:39.849Z,84.34
2023-03-04T00:51:41.292Z,84.04
2023-03-04T00:53:42.742Z,84.10
2023-03-04T00:55:44.242Z,83.68
2023-03-04T00:57:45.766Z,83.86
2023-03-04T00:59:47.278Z,84.69
2023-03-04T01:01:48.736Z,83.94
2023-03-04T01:03:50.195Z,83.59
2023-03-04T01:05:51.646Z,84.41
2023-03-04T01:07:53.221Z,83.90
2023-03-04T01:09:54.681Z,84.31
2023-03-04T01:11:56.430Z,84.17
2023-03-04T01:13:57.939Z,83.45
2023-03-04T01:15:59.482Z,84.21
2023-03-04T01:18:00.985Z,83.94
2023-03-04T01:20:02.877Z,83.84
2023-03-04T01:22:04.432Z,84.16
2023-03-04T01:24:06.131Z,83.62
2023-03-04T01:26:07.618Z,83.43
2023-03-04T01:28:09.073Z,82.91
2023-03-04T01:30:11.417Z,83.02
2023-03-04T01:32:12.967Z,83.34
2023-03-04T01:34:14.532Z,83.69
2023-03-04T01:36:16.018Z,83.76
2023-03-04T01:38:17.541Z,83.09
2023-03-04T01:40:19.282Z,83.61
2023-03-04T01:42:23.120Z,83.78
2023-03-04T01:44:24.834Z,83.56
2023-03-04T01:46:26.881Z,84.24
2023-03-04T01:48:37.022Z,84.20
2023-03-04T01:50:38.616Z,84.69
2023-03-04T01:52:41.116Z,83.99
2023-03-04T01:54:42.848Z,84.20
2023-03-04T01:56:46.456Z,83.31
2023-03-04T01:59:06.987Z,83.76
2023-03-04T02:01:11.473Z,83.79
2023-03-04T02:03:16.388Z,83.93
2023-03-04T02:05:18.089Z,83.51
2023-03-04T02:07:19.577Z,83.89
2023-03-04T02:09:21.346Z,83.99
2023-03-04T02:11:22.929Z,84.59
2023-03-04T02:13:24.434Z,84.69
2023-03-04T02:15:26.112Z,84.73
2023-03-04T02:17:28.691Z,84.88
2023-03-04T02:20:05.278Z,85.21
2023-03-04T02:22:06.942Z,86.23
2023-03-04T02:24:35.484Z,86.74
2023-03-04T02:26:37.494Z,87.30
2023-03-04T02:28:39.251Z,88.40
2023-03-04T02:30:40.785Z,88.16
2023-03-04T02:32:42.288Z,89.21
2023-03-04T02:34:50.801Z,89.71
2023-03-04T02:36:53.836Z,90.91
2023-03-04T02:39:00.292Z,91.39
2023-03-04T02:41:03.337Z,91.89
2023-03-04T02:43:04.831Z,91.61
2023-03-04T02:45:06.970Z,92.03
2023-03-04T02:47:10.782Z,91.68
2023-03-04T02:49:12.500Z,92.32
2023-03-04T02:51:13.968Z,92.78
2023-03-04T02:53:15.907Z,92.36
2023-03-04T02:55:17.391Z,92.56
2023-03-04T02:57:19.274Z,92.19
2023-03-04T02:59:21.936Z,91.30
2023-03-04T03:01:27.749Z,91.24
2023-03-04T03:03:29.217Z,90.88
2023-03-04T03:05:32.839Z,91.01
2023-03-04T03:07:34.944Z,90.71
2023-03-04T03:09:36.469Z,90.68
2023-03-04T03:11:38.027Z,89.60
2023-03-04T03:13:39.470Z,90.17
2023-03-04T03:15:42.349Z,89.50
2023-03-04T03:17:44.094Z,89.50
2023-03-04T03:19:45.516Z,89.20
2023-03-04T03:21:47.004Z,89.48
2023-03-04T03:23:48.624Z,89.71
2023-03-04T03:25:50.064Z,89.68
2023-03-04T03:27:51.535Z,89.32
2023-03-04T03:29:53.025Z,89.24
2023-03-04T03:31:55.050Z,89.45
2023-03-04T03:33:56.503Z,88.69
2023-03-04T03:35:58.653Z,89.10
2023-03-04T03:38:00.187Z,89.29
2023-03-04T03:40:01.722Z,89.22
2023-03-04T03:42:03.393Z,88.56
2023-03-04T03:44:04.974Z,88.21
2023-03-04T03:46:06.494Z,88.62
2023-03-04T03:48:07.976Z,88.72
2023-03-04T03:50:09.919Z,88.90
2023-03-04T03:52:11.400Z,89.00
2023-03-04T03:54:13.059Z,88.22
2023-03-04T03:56:14.532Z,88.50
2023-03-04T03:58:16.107Z,88.84
2023-03-04T04:00:18.005Z,89.22
2023-03-04T04:02:19.685Z,88.90
2023-03-04T04:04:21.212Z,89.19
2023-03-04T04:06:22.663Z,89.51
2023-03-04T04:08:24.133Z,89.84
2023-03-04T04:10:25.611Z,89.13
2023-03-04T04:12:27.134Z,89.58
2023-03-04T04:14:28.631Z,90.24
2023-03-04T04:16:30.558Z,90.00
2023-03-04T04:18:32.072Z,89.62
2023-03-04T04:20:34.146Z,90.13
2023-03-04T04:22:35.671Z,90.70
2023-03-04T04:24:37.146Z,90.87
2023-03-04T04:26:38.815Z,90.92
2023-03-04T04:28:41.208Z,90.64
2023-03-04T04:30:42.897Z,91.78
2023-03-04T04:32:44.606Z,91.69
2023-03-04T04:34:46.082Z,91.38
2023-03-04T04:36:47.827Z,92.31
2023-03-04T04:38:49.463Z,92.30
2023-03-04T04:40:51.217Z,93.20
2023-03-04T04:42:52.690Z,92.66
2023-03-04T04:44:54.299Z,93.25
2023-03-04T04:46:55.802Z,93.73
2023-03-04T04:48:57.263Z,93.51
2023-03-04T04:50:58.706Z,94.66
2023-03-04T04:53:00.368Z,94.75
2023-03-04T04:55:02.396Z,94.57
2023-03-04T04:57:03.855Z,95.22
2023-03-04T04:59:08.591Z,95.50
2023-03-04T05:01:10.480Z,96.36
2023-03-04T05:03:11.961Z,96.94
2023-03-04T05:05:13.484Z,97.45
2023-03-04T05:07:14.938Z,97.66
2023-03-04T05:09:16.382Z,97.78
2023-03-04T05:11:19.491Z,98.25
2023-03-04T05:13:21.311Z,98.08
2023-03-04T05:15:22.853Z,98.42
2023-03-04T05:17:24.286Z,99.24
2023-03-04T05:19:25.793Z,99.57
2023-03-04T05:21:27.253Z,100.00
2023-03-04T05:23:32.467Z,100.00
2023-03-04T05:25:33.922Z,100.00
2023-03-04T05:27:35.394Z,100.00
2023-03-04T05:29:36.840Z,100.00
2023-03-04T05:31:38.273Z,100.00
2023-03-04T05:33:40.306Z,100.00
2023-03-04T05:35:43.127Z,100.00
2023-03-04T05:37:44.604Z,100.00
2023-03-04T05:39:46.046Z,100.00
2023-03-04T05:41:47.503Z,100.00
2023-03-04T05:43:49.988Z,100.00
2023-03-04T05:45:51.492Z,100.00
2023-03-04T05:47:54.154Z,100.00
2023-03-04T05:49:55.665Z,100.00
2023-03-04T05:51:57.143Z,100.00
2023-03-04T05:53:58.579Z,100.00
2023-03-04T05:56:00.276Z,100.00
2023-03-04T05:58:01.712Z,100.00
2023-03-04T06:00:05.708Z,100.00
2023-03-04T06:02:07.207Z,100.00
2023-03-04T06:04:08.770Z,100.00
2023-03-04T06:06:10.500Z,100.00
2023-03-04T06:08:13.058Z,100.00
2023-03-04T06:10:17.085Z,100.00
2023-03-04T06:12:18.584Z,100.00
2023-03-04T06:14:20.044Z,100.00
2023-03-04T06:16:21.757Z,100.00
2023-03-04T06:18:24.953Z,100.00
2023-03-04T06:20:26.469Z,100.00
2023-03-04T06:22:27.946Z,100.00
2023-03-04T06:24:29.393Z,100.00
2023-03-04T06:26:31.227Z,100.00
2023-03-04T06:28:32.678Z,100.00
2023-03-04T06:30:34.343Z,100.00
2023-03-04T06:32:35.900Z,100.00
2023-03-04T06:34:37.418Z,100.00
2023-03-04T06:36:38.872Z,100.00
2023-03-04T06:38:40.380Z,100.00
2023-03-04T06:40:41.829Z,100.00
2023-03-04T06:42:43.590Z,100.00
2023-03-04T06:44:45.245Z,100.00
2023-03-04T06:46:46.828Z,100.00
2023-03-04T06:48:48.360Z,100.00
2023-03-04T06:50:49.796Z,100.00
2023-03-04T06:52:51.297Z,100.00
2023-03-04T06:54:52.818Z,100.00
2023-03-04T06:56:54.343Z,100.00
2023-03-04T06:58:55.816Z,100.00
2023-03-04T07:00:57.342Z,100.00
2023-03-04T07:02:59.593Z,100.00
2023-03-04T07:05:01.113Z,100.00
2023-03-04T07:07:02.571Z,100.00
2023-03-04T07:09:04.142Z,100.00
2023-03-04T07:11:06.163Z,100.00
2023-03-04T07:13:07.639Z,100.00
2023-03-04T07:15:09.706Z,100.00
2023-03-04T07:17:11.180Z,100.00
2023-03-04T07:19:12.717Z,100.00
2023-03-04T07:21:15.385Z,100.00
2023-03-04T07:23:16.833Z,100.00
2023-03-04T07:25:18.323Z,100.00
2023-03-04T07:27:19.835Z,100.00
2023-03-04T07:29:21.350Z,100.00
2023-03-04T07:31:28.336Z,100.00
2023-03-04T07:33:29.772Z,100.00
2023-03-04T07:35:31.277Z,100.00
2023-03-04T07:37:32.724Z,100.00
2023-03-04T07:39:34.194Z,100.00
2023-03-04T07:41:37.211Z,100.00
2023-03-04T07:43:38.691Z,100.00
2023-03-04T07:45:40.201Z,100.00
2023-03-04T07:47:41.665Z,100.00
2023-03-04T07:49:43.105Z,100.00
2023-03-04T07:51:44.586Z,100.00
2023-03-04T07:53:49.110Z,100.00
2023-03-04T07:55:50.781Z,100.00
2023-03-04T07:57:52.228Z,100.00
2023-03-04T07:59:53.753Z,100.00
2023-03-04T08:01:55.197Z,100.00
2023-03-04T08:03:57.626Z,100.00
2023-03-04T08:05:59.072Z,100.00
2023-03-04T08:08:00.574Z,100.00
2023-03-04T08:10:02.054Z,100.00
2023-03-04T08:12:03.786Z,100.00
2023-03-04T08:14:05.683Z,100.00
2023-03-04T08:16:08.091Z,100.00
2023-03-04T08:18:09.899Z,100.00
2023-03-04T08:20:12.062Z,100.00
2023-03-04T08:22:13.522Z,99.00
2023-03-04T08:24:15.040Z,99.01
2023-03-04T08:26:18.743Z,98.02
2023-03-04T08:28:20.236Z,96.94
2023-03-04T08:30:21.887Z,96.49
2023-03-04T08:32:23.723Z,95.37
2023-03-04T08:34:27.770Z,94.62
2023-03-04T08:36:29.278Z,93.18
2023-03-04T08:38:31.940Z,92.99
2023-03-04T08:40:33.622Z,93.22
2023-03-04T08:42:35.086Z,92.54
2023-03-04T08:44:36.499Z,90.67
2023-03-04T08:46:39.906Z,90.34
2023-03-04T08:48:41.340Z,90.14
2023-03-04T08:50:45.008Z,89.30
2023-03-04T08:52:46.541Z,89.29
2023-03-04T08:54:48.008Z,88.41
2023-03-04T08:56:49.488Z,87.93
2023-03-04T08:58:50.930Z,87.66
2023-03-04T09:00:52.360Z,88.18
2023-03-04T09:02:55.740Z,87.99
2023-03-04T09:04:57.248Z,87.16
2023-03-04T09:06:58.766Z,87.52
2023-03-04T09:09:00.340Z,87.34
2023-03-04T09:11:02.494Z,87.01
2023-03-04T09:13:04.153Z,87.41
2023-03-04T09:15:13.970Z,86.75
2023-03-04T09:17:15.470Z,86.86
2023-03-04T09:19:16.910Z,86.99
2023-03-04T09:21:18.359Z,86.21
2023-03-04T09:23:19.862Z,87.26
2023-03-04T09:25:21.457Z,87.82
2023-03-04T09:27:22.931Z,87.30
2023-03-04T09:29:24.796Z,87.32
2023-03-04T09:31:27.444Z,87.13
2023-03-04T09:33:28.959Z,86.80
2023-03-04T09:35:30.566Z,86.65
2023-03-04T09:37:32.284Z,86.70
2023-03-04T09:39:33.806Z,85.94
2023-03-04T09:41:45.916Z,84.61
2023-03-04T09:43:49.182Z,84.24
2023-03-04T09:45:57.266Z,84.19
2023-03-04T09:47:59.429Z,84.32
2023-03-04T09:50:04.155Z,84.40
2023-03-04T09:52:15.780Z,86.06
2023-03-04T09:54:50.412Z,86.88
2023-03-04T09:56:57.214Z,86.27
2023-03-04T09:59:16.913Z,87.21
2023-03-04T10:01:28.378Z,87.17
2023-03-04T10:03:43.200Z,86.03
2023-03-04T10:05:58.777Z,85.83
2023-03-04T10:08:18.040Z,87.24
2023-03-04T10:10:26.173Z,86.14
2023-03-04T10:12:31.326Z,86.44
2023-03-04T10:14:38.177Z,85.52
2023-03-04T10:16:53.930Z,85.76
2023-03-04T10:19:40.686Z,85.92
2023-03-04T10:21:48.089Z,85.43
2023-03-04T10:23:49.814Z,85.53
2023-03-04T10:25:54.174Z,85.25
2023-03-04T10:27:59.702Z,85.63
2023-03-04T10:30:01.196Z,86.37
2023-03-04T10:32:02.891Z,86.48
2023-03-04T10:34:05.764Z,86.57
2023-03-04T10:36:25.751Z,86.57
2023-03-04T10:38:32.408Z,86.42
2023-03-04T10:40:38.861Z,86.54
2023-03-04T10:42:40.506Z,86.18
2023-03-04T10:44:44.452Z,85.25
2023-03-04T10:46:48.004Z,85.08
2023-03-04T10:48:49.816Z,84.74
2023-03-04T10:50:51.390Z,83.90
2023-03-04T10:52:55.803Z,84.73
2023-03-04T10:55:13.166Z,83.77
2023-03-04T10:57:18.722Z,82.71
2023-03-04T10:59:33.884Z,83.09
2023-03-04T11:01:35.409Z,84.09
2023-03-04T11:03:37.405Z,84.62
2023-03-04T11:05:38.874Z,84.72
2023-03-04T11:07:54.433Z,84.09
2023-03-04T11:10:09.236Z,83.80
2023-03-04T11:12:13.762Z,83.01
2023-03-04T11:14:30.289Z,81.11
2023-03-04T11:16:34.738Z,79.14
2023-03-04T11:18:52.279Z,80.94
2023-03-04T11:20:55.267Z,79.63
2023-03-04T11:23:05.174Z,81.65
2023-03-04T11:25:12.360Z,80.68
2023-03-04T11:27:13.895Z,78.74
2023-03-04T11:29:33.812Z,79.41
2023-03-04T11:31:42.964Z,76.93
2023-03-04T11:34:02.997Z,72.29
2023-03-04T11:36:22.127Z,75.61
2023-03-04T11:38:39.058Z,74.72
2023-03-04T11:40:49.111Z,76.17
2023-03-04T11:43:02.828Z,77.62
2023-03-04T11:45:27.497Z,76.12
2023-03-04T11:48:24.005Z,77.31
2023-03-04T11:50:41.630Z,74.82
2023-03-04T11:52:45.769Z,75.24
2023-03-04T11:55:08.299Z,73.35
2023-03-04T11:57:40.901Z,74.05
2023-03-04T11:59:50.672Z,76.27
2023-03-04T12:02:10.599Z,79.30
2023-03-04T12:04:21.563Z,80.17
2023-03-04T12:06:58.583Z,81.18
2023-03-04T12:09:06.243Z,79.46
2023-03-04T12:11:13.834Z,79.63
2023-03-04T12:13:50.678Z,73.93
2023-03-04T12:15:58.038Z,72.96
2023-03-04T12:18:11.167Z,73.38
2023-03-04T12:20:45.873Z,73.47
2023-03-04T12:22:57.900Z,74.66
2023-03-04T12:25:19.327Z,76.21
2023-03-04T12:27:27.449Z,84.42
2023-03-04T12:29:46.111Z,81.38
2023-03-04T12:31:50.601Z,84.29
2023-03-04T12:34:21.435Z,84.91
2023-03-04T12:37:00.048Z,85.32
2023-03-04T12:39:30.497Z,85.78
2023-03-04T12:41:50.501Z,84.76
2023-03-04T12:44:17.179Z,84.09
2023-03-04T12:46:19.367Z,82.79
2023-03-04T12:48:39.507Z,81.19
2023-03-04T12:50:55.875Z,80.45
2023-03-04T12:53:27.429Z,80.78
2023-03-04T12:55:40.460Z,80.17
2023-03-04T12:57:42.932Z,78.29
2023-03-04T13:00:06.094Z,77.57
2023-03-04T13:02:13.630Z,80.24
2023-03-04T13:04:27.830Z,80.48
2023-03-04T13:06:47.749Z,79.70
2023-03-04T13:08:49.158Z,77.43
2023-03-04T13:10:51.601Z,76.33
2023-03-04T13:13:00.563Z,76.73
2023-03-04T13:15:08.150Z,78.33
2023-03-04T13:17:43.924Z,75.76
2023-03-04T13:19:52.689Z,74.63
2023-03-04T13:21:54.565Z,82.11
2023-03-04T13:23:56.630Z,83.72
2023-03-04T13:25:58.157Z,81.54
2023-03-04T13:28:05.238Z,79.62
2023-03-04T13:30:35.670Z,80.95
2023-03-04T13:32:38.713Z,80.51
2023-03-04T13:34:49.076Z,81.66
2023-03-04T13:36:56.483Z,80.43
2023-03-04T13:39:18.157Z,80.34
2023-03-04T13:41:19.635Z,80.36
2023-03-04T13:43:36.620Z,80.70
2023-03-04T13:45:40.067Z,78.48
2023-03-04T13:47:44.798Z,80.83
2023-03-04T13:49:46.344Z,77.54
2023-03-04T13:51:48.000Z,77.58
2023-03-04T13:53:54.679Z,77.35
2023-03-04T13:56:08.296Z,78.14
2023-03-04T13:58:24.013Z,79.34
2023-03-04T14:00:26.429Z,76.56
2023-03-04T14:02:34.147Z,76.10
2023-03-04T14:04:40.511Z,76.18
2023-03-04T14:06:47.695Z,76.42
2023-03-04T14:08:51.200Z,75.79
2023-03-04T14:10:56.520Z,76.26
2023-03-04T14:13:00.578Z,78.87
2023-03-04T14:15:23.896Z,77.16
2023-03-04T14:17:32.281Z,75.82
2023-03-04T14:19:39.127Z,75.07
2023-03-04T14:21:45.562Z,77.18
2023-03-04T14:23:47.087Z,78.87
2023-03-04T14:25:48.675Z,80.88
2023-03-04T14:27:50.901Z,80.97
2023-03-04T14:30:01.210Z,82.65
2023-03-04T14:32:05.992Z,81.10
2023-03-04T14:34:07.566Z,79.24
2023-03-04T14:36:24.550Z,79.92
2023-03-04T14:38:36.812Z,79.23
2023-03-04T14:40:45.442Z,80.48
2023-03-04T14:42:48.119Z,80.13
2023-03-04T14:44:51.366Z,81.89
2023-03-04T14:47:06.950Z,81.20
2023-03-04T14:49:16.124Z,80.36
2023-03-04T14:51:29.744Z,81.65
2023-03-04T14:53:33.162Z,81.28
2023-03-04T14:55:35.427Z,80.69
2023-03-04T14:57:36.931Z,83.86
2023-03-04T14:59:38.448Z,83.22
2023-03-04T15:01:40.116Z,82.96
2023-03-04T15:04:04.799Z,82.67
2023-03-04T15:06:16.203Z,79.54
2023-03-04T15:08:17.620Z,77.94
2023-03-04T15:10:26.156Z,81.35
2023-03-04T15:12:31.106Z,77.85
2023-03-04T15:14:50.250Z,78.63
2023-03-04T15:16:56.922Z,78.96
2023-03-04T15:19:23.275Z,77.04
2023-03-04T15:21:31.767Z,79.55
2023-03-04T15:23:33.845Z,79.44
2023-03-04T15:25:35.740Z,78.71
2023-03-04T15:27:37.456Z,79.47
2023-03-04T15:29:39.012Z,77.66
2023-03-04T15:31:42.069Z,78.26
2023-03-04T15:33:43.778Z,79.80
2023-03-04T15:35:53.518Z,80.59
2023-03-04T15:37:55.949Z,80.19
2023-03-04T15:39:58.817Z,81.10
2023-03-04T15:42:00.837Z,81.18
2023-03-04T15:44:02.394Z,81.02
2023-03-04T15:46:04.023Z,80.33
2023-03-04T15:48:08.165Z,80.02
2023-03-04T15:50:10.927Z,81.25
2023-03-04T15:52:22.696Z,82.30
2023-03-04T15:54:28.426Z,81.06
2023-03-04T15:56:32.516Z,81.19
2023-03-04T15:58:35.239Z,81.14
2023-03-04T16:00:37.233Z,81.62
2023-03-04T16:02:39.671Z,80.71
2023-03-04T16:04:41.318Z,80.53
2023-03-04T16:06:45.520Z,81.83
2023-03-04T16:08:49.267Z,83.37
2023-03-04T16:10:52.023Z,84.16
2023-03-04T16:12:54.529Z,84.86
2023-03-04T16:14:56.008Z,84.45
2023-03-04T16:16:57.482Z,86.46
2023-03-04T16:18:58.957Z,87.13
2023-03-04T16:21:00.473Z,88.03
2023-03-04T16:23:03.046Z,89.03
2023-03-04T16:25:04.951Z,90.19
2023-03-04T16:27:10.789Z,90.72
2023-03-04T16:29:12.351Z,90.72
2023-03-04T16:31:15.634Z,91.29
2023-03-04T16:33:17.367Z,91.60
2023-03-04T16:35:20.133Z,91.90
2023-03-04T16:37:21.877Z,92.47
2023-03-04T16:39:25.880Z,91.58
2023-03-04T16:41:30.668Z,91.63
2023-03-04T16:43:32.178Z,91.35
2023-03-04T16:45:36.262Z,90.92
2023-03-04T16:47:37.728Z,91.03
2023-03-04T16:49:39.612Z,90.94
2023-03-04T16:51:49.076Z,91.22
2023-03-04T16:53:56.597Z,91.12
2023-03-04T16:56:01.320Z,90.75
2023-03-04T16:58:03.665Z,90.98
2023-03-04T17:00:06.693Z,90.48
2023-03-04T17:02:20.129Z,90.97
2023-03-04T17:04:22.246Z,90.33
2023-03-04T17:06:24.397Z,90.03
2023-03-04T17:08:25.858Z,89.53
2023-03-04T17:10:27.480Z,89.92
2023-03-04T17:12:29.004Z,89.99
2023-03-04T17:14:30.491Z,90.51
2023-03-04T17:16:33.031Z,90.62
2023-03-04T17:18:34.516Z,91.23
2023-03-04T17:20:35.986Z,91.06
2023-03-04T17:22:37.526Z,91.35
2023-03-04T17:24:39.019Z,91.63
2023-03-04T17:26:42.561Z,91.53
2023-03-04T17:28:44.003Z,91.58
2023-03-04T17:30:45.454Z,91.75
2023-03-04T17:32:46.923Z,91.90
2023-03-04T17:34:48.658Z,92.41
2023-03-04T17:36:50.116Z,92.68
2023-03-04T17:38:52.033Z,92.91
2023-03-04T17:40:53.610Z,93.51
2023-03-04T17:42:55.066Z,93.31
2023-03-04T17:44:56.595Z,93.77
2023-03-04T17:46:58.221Z,93.92
2023-03-04T17:48:59.846Z,93.82
2023-03-04T17:51:01.459Z,93.56
2023-03-04T17:53:02.976Z,93.85
2023-03-04T17:55:04.681Z,93.78
2023-03-04T17:57:06.552Z,94.28
2023-03-04T17:59:12.620Z,94.05
2023-03-04T18:01:20.062Z,93.97
2023-03-04T18:03:21.576Z,94.09
2023-03-04T18:05:23.140Z,94.14
2023-03-04T18:07:24.693Z,93.99
2023-03-04T18:09:26.764Z,93.57
2023-03-04T18:11:28.474Z,94.22
2023-03-04T18:13:30.223Z,93.91
2023-03-04T18:15:31.963Z,93.72
2023-03-04T18:17:33.450Z,93.46
2023-03-04T18:19:34.987Z,93.62
2023-03-04T18:21:36.553Z,93.95
2023-03-04T18:23:38.120Z,93.64
2023-03-04T18:25:40.062Z,93.83
2023-03-04T18:27:42.500Z,93.73
2023-03-04T18:29:43.964Z,93.78
2023-03-04T18:31:45.495Z,93.91
2023-03-04T18:33:47.545Z,93.88
2023-03-04T18:35:49.279Z,93.86
2023-03-04T18:37:51.014Z,93.85
2023-03-04T18:39:52.587Z,93.98
2023-03-04T18:41:54.081Z,94.16
2023-03-04T18:43:55.778Z,94.38
2023-03-04T18:46:04.959Z,93.90
2023-03-04T18:48:06.602Z,93.65
2023-03-04T18:50:09.308Z,93.69
2023-03-04T18:52:10.759Z,93.57
2023-03-04T18:54:12.206Z,93.00
2023-03-04T18:56:17.542Z,92.68
2023-03-04T18:58:19.442Z,92.75
2023-03-04T19:00:23.511Z,92.94
2023-03-04T19:02:33.171Z,92.81
2023-03-04T19:04:34.757Z,92.73
2023-03-04T19:06:36.301Z,92.51
2023-03-04T19:08:38.050Z,92.48
2023-03-04T19:10:39.523Z,92.36
2023-03-04T19:12:40.978Z,92.39
2023-03-04T19:14:42.481Z,92.00
2023-03-04T19:16:44.076Z,91.76
2023-03-04T19:18:45.672Z,91.56
2023-03-04T19:20:47.307Z,91.77
2023-03-04T19:22:49.030Z,92.03
2023-03-04T19:24:50.591Z,92.05
2023-03-04T19:26:52.055Z,91.86
2023-03-04T19:28:53.522Z,92.18
2023-03-04T19:30:58.853Z,92.17
2023-03-04T19:33:00.490Z,92.42
2023-03-04T19:35:01.977Z,92.68
2023-03-04T19:37:03.431Z,93.05
2023-03-04T19:39:05.661Z,92.83
2023-03-04T19:41:12.215Z,92.78
2023-03-04T19:43:14.677Z,92.86
2023-03-04T19:45:16.192Z,93.01
2023-03-04T19:47:17.795Z,93.09
2023-03-04T19:49:19.646Z,92.77
2023-03-04T19:51:23.792Z,93.13
2023-03-04T19:53:25.894Z,93.38
2023-03-04T19:55:27.422Z,93.60
2023-03-04T19:57:29.352Z,93.85
2023-03-04T19:59:30.818Z,93.71
2023-03-04T20:01:35.183Z,93.60
2023-03-04T20:03:36.764Z,93.51
2023-03-04T20:05:38.491Z,93.47
2023-03-04T20:07:40.323Z,93.83
2023-03-04T20:09:41.788Z,93.93
2023-03-04T20:11:57.327Z,93.79
2023-03-04T20:14:04.449Z,93.86
2023-03-04T20:16:10.874Z,94.34
2023-03-04T20:18:12.463Z,94.64
2023-03-04T20:20:14.350Z,94.53
2023-03-04T20:22:15.849Z,94.90
2023-03-04T20:24:19.066Z,94.66
2023-03-04T20:26:20.596Z,94.62
2023-03-04T20:28:23.365Z,94.94
2023-03-04T20:30:25.024Z,94.89
2023-03-04T20:32:26.519Z,94.96
2023-03-04T20:34:28.102Z,94.99
2023-03-04T20:36:30.907Z,95.21
2023-03-04T20:38:32.414Z,95.37
2023-03-04T20:40:35.901Z,95.11
2023-03-04T20:42:37.474Z,95.28
2023-03-04T20:44:38.963Z,95.45
2023-03-04T20:46:45.007Z,95.71
2023-03-04T20:48:46.481Z,95.27
2023-03-04T20:50:47.923Z,95.27
2023-03-04T20:52:49.458Z,95.12
2023-03-04T20:54:50.962Z,95.37
2023-03-04T20:56:52.444Z,95.73
2023-03-04T20:58:55.391Z,96.12
2023-03-04T21:00:56.871Z,96.15
2023-03-04T21:02:58.370Z,96.21
2023-03-04T21:05:01.325Z,96.45
2023-03-04T21:07:02.900Z,96.83
2023-03-04T21:09:07.315Z,97.01
2023-03-04T21:11:16.414Z,96.94
2023-03-04T21:13:21.373Z,97.30
2023-03-04T21:15:22.825Z,97.38
2023-03-04T21:17:24.642Z,97.54
2023-03-04T21:19:36.145Z,97.63
2023-03-04T21:21:37.597Z,97.62
2023-03-04T21:23:39.395Z,97.99
2023-03-04T21:25:41.511Z,97.70
2023-03-04T21:27:43.257Z,97.62
2023-03-04T21:29:44.968Z,97.24
2023-03-04T21:31:50.284Z,97.32
2023-03-04T21:33:54.315Z,97.28
2023-03-04T21:35:55.805Z,97.29
2023-03-04T21:37:57.277Z,96.90
2023-03-04T21:40:01.197Z,96.95
2023-03-04T21:42:03.885Z,96.80
2023-03-04T21:44:05.654Z,96.87
2023-03-04T21:46:07.333Z,97.39
2023-03-04T21:48:08.791Z,96.93
2023-03-04T21:50:10.898Z,97.60
2023-03-04T21:52:13.157Z,97.78
2023-03-04T21:54:15.330Z,98.19
2023-03-04T21:56:16.836Z,98.65
2023-03-04T21:58:18.393Z,98.63
2023-03-04T22:00:20.396Z,98.71
2023-03-04T22:02:22.536Z,98.78
2023-03-04T22:04:24.013Z,99.46
2023-03-04T22:06:27.164Z,99.29
2023-03-04T22:08:28.609Z,99.28
2023-03-04T22:10:31.057Z,99.44
2023-03-04T22:12:32.662Z,99.71
2023-03-04T22:14:34.177Z,99.48
2023-03-04T22:16:42.480Z,99.60
2023-03-04T22:18:50.396Z,99.72
2023-03-04T22:20:53.570Z,99.77
2023-03-04T22:22:55.032Z,99.70
2023-03-04T22:24:59.609Z,99.66
2023-03-04T22:27:01.172Z,99.85
2023-03-04T22:29:02.666Z,99.59
2023-03-04T22:31:30.210Z,99.23
2023-03-04T22:33:37.124Z,99.24
2023-03-04T22:35:41.590Z,99.27
2023-03-04T22:37:44.191Z,99.70
2023-03-04T22:39:45.648Z,99.10
2023-03-04T22:41:47.347Z,99.17
2023-03-04T22:43:49.305Z,99.40
2023-03-04T22:45:50.903Z,99.30
2023-03-04T22:47:53.085Z,99.37
2023-03-04T22:49:54.557Z,99.38
2023-03-04T22:51:56.034Z,99.25
2023-03-04T22:53:58.088Z,99.18
2023-03-04T22:55:59.978Z,99.33
2023-03-04T22:58:03.311Z,99.03
2023-03-04T23:00:16.090Z,99.48
2023-03-04T23:02:17.620Z,99.50
2023-03-04T23:04:19.084Z,99.23
2023-03-04T23:06:25.115Z,99.08
2023-03-04T23:08:26.569Z,99.17
2023-03-04T23:10:28.081Z,99.02
2023-03-04T23:12:29.573Z,99.25
2023-03-04T23:14:31.113Z,99.30
2023-03-04T23:16:36.850Z,98.92
2023-03-04T23:18:40.411Z,99.33
2023-03-04T23:20:43.324Z,99.20
2023-03-04T23:22:46.415Z,98.79
2023-03-04T23:24:47.848Z,99.12
2023-03-04T23:26:49.585Z,98.81
2023-03-04T23:28:51.696Z,98.72
2023-03-04T23:30:53.247Z,98.38
2023-03-04T23:32:54.995Z,98.57
2023-03-04T23:34:56.722Z,98.79
2023-03-04T23:36:58.224Z,98.56
2023-03-04T23:39:00.764Z,98.59
2023-03-04T23:41:02.232Z,98.55
2023-03-04T23:43:03.722Z,98.42
2023-03-04T23:45:06.352Z,98.89
2023-03-04T23:47:08.536Z,98.37
2023-03-04T23:49:12.994Z,98.17
2023-03-04T23:51:18.325Z,98.03
2023-03-04T23:53:19.897Z,97.92
2023-03-04T23:55:21.446Z,97.75
2023-03-04T23:57:22.987Z,97.85
2023-03-04T23:59:24.569Z,97.37
